sensor_id;sensor_type;location;lat;lon;timestamp;temperature;humidity
52044;DHT22;38053;53.100;6.078;2022-12-18T00:01:34;-3.20;99.90
52044;DHT22;38053;53.100;6.078;2022-12-18T00:04:02;-3.30;99.90
52044;DHT22;38053;53.100;6.078;2022-12-18T00:06:32;-3.30;99.90
52044;DHT22;38053;53.100;6.078;2022-12-18T00:08:59;-3.30;99.90
52044;DHT22;38053;53.100;6.078;2022-12-18T00:11:27;-3.30;99.90
52044;DHT22;38053;53.100;6.078;2022-12-18T00:13:55;-3.30;99.90
52044;DHT22;38053;53.100;6.078;2022-12-18T00:16:22;-3.40;99.90
52044;DHT22;38053;53.100;6.078;2022-12-18T00:18:51;-3.40;99.90
52044;DHT22;38053;53.100;6.078;2022-12-18T00:21:17;-3.40;99.90
52044;DHT22;38053;53.100;6.078;2022-12-18T00:23:44;-3.40;99.90
52044;DHT22;38053;53.100;6.078;2022-12-18T00:26:16;-3.40;99.90
52044;DHT22;38053;53.100;6.078;2022-12-18T00:28:43;-3.40;99.90
52044;DHT22;38053;53.100;6.078;2022-12-18T00:31:11;-3.50;99.90
52044;DHT22;38053;53.100;6.078;2022-12-18T00:33:37;-3.50;99.90
52044;DHT22;38053;53.100;6.078;2022-12-18T00:36:05;-3.50;99.90
52044;DHT22;38053;53.100;6.078;2022-12-18T00:38:31;-3.50;99.90
52044;DHT22;38053;53.100;6.078;2022-12-18T00:40:57;-3.50;99.90
52044;DHT22;38053;53.100;6.078;2022-12-18T00:43:23;-3.50;99.90
52044;DHT22;38053;53.100;6.078;2022-12-18T00:45:49;-3.50;99.90
52044;DHT22;38053;53.100;6.078;2022-12-18T00:48:14;-3.50;99.90
52044;DHT22;38053;53.100;6.078;2022-12-18T00:50:40;-3.50;99.90
52044;DHT22;38053;53.100;6.078;2022-12-18T00:53:06;-3.50;99.90
52044;DHT22;38053;53.100;6.078;2022-12-18T00:55:31;-3.50;99.90
52044;DHT22;38053;53.100;6.078;2022-12-18T00:57:57;-3.60;99.90
52044;DHT22;38053;53.100;6.078;2022-12-18T01:00:23;-3.60;99.90
52044;DHT22;38053;53.100;6.078;2022-12-18T01:02:48;-3.60;99.90
52044;DHT22;38053;53.100;6.078;2022-12-18T01:05:15;-3.60;99.90
52044;DHT22;38053;53.100;6.078;2022-12-18T01:07:41;-3.60;99.90
52044;DHT22;38053;53.100;6.078;2022-12-18T01:10:09;-3.60;99.90
52044;DHT22;38053;53.100;6.078;2022-12-18T01:12:35;-3.60;99.90
52044;DHT22;38053;53.100;6.078;2022-12-18T01:15:01;-3.70;99.90
52044;DHT22;38053;53.100;6.078;2022-12-18T01:17:27;-3.70;99.90
52044;DHT22;38053;53.100;6.078;2022-12-18T01:19:52;-3.70;99.90
52044;DHT22;38053;53.100;6.078;2022-12-18T01:22:18;-3.70;99.90
52044;DHT22;38053;53.100;6.078;2022-12-18T01:24:43;-3.70;99.90
52044;DHT22;38053;53.100;6.078;2022-12-18T01:27:09;-3.80;99.90
52044;DHT22;38053;53.100;6.078;2022-12-18T01:29:35;-3.80;99.90
52044;DHT22;38053;53.100;6.078;2022-12-18T01:32:00;-3.80;99.90
52044;DHT22;38053;53.100;6.078;2022-12-18T01:34:26;-3.80;99.90
52044;DHT22;38053;53.100;6.078;2022-12-18T01:36:51;-3.90;99.90
52044;DHT22;38053;53.100;6.078;2022-12-18T01:39:18;-3.90;99.90
52044;DHT22;38053;53.100;6.078;2022-12-18T01:41:44;-4.00;99.90
52044;DHT22;38053;53.100;6.078;2022-12-18T01:50:46;-4.10;99.90
52044;DHT22;38053;53.100;6.078;2022-12-18T01:53:22;-4.20;99.90
52044;DHT22;38053;53.100;6.078;2022-12-18T01:55:51;-4.30;99.90
52044;DHT22;38053;53.100;6.078;2022-12-18T01:58:20;-4.30;99.90
52044;DHT22;38053;53.100;6.078;2022-12-18T02:00:48;-4.30;99.90
52044;DHT22;38053;53.100;6.078;2022-12-18T02:03:13;-4.30;99.90
52044;DHT22;38053;53.100;6.078;2022-12-18T02:14:17;-4.40;99.90
52044;DHT22;38053;53.100;6.078;2022-12-18T02:17:08;-4.50;99.90
52044;DHT22;38053;53.100;6.078;2022-12-18T02:22:41;-4.50;99.90
52044;DHT22;38053;53.100;6.078;2022-12-18T02:28:13;-4.60;99.90
52044;DHT22;38053;53.100;6.078;2022-12-18T02:30:42;-4.70;99.90
52044;DHT22;38053;53.100;6.078;2022-12-18T02:33:11;-4.70;99.90
52044;DHT22;38053;53.100;6.078;2022-12-18T02:35:38;-4.70;99.90
52044;DHT22;38053;53.100;6.078;2022-12-18T02:38:06;-4.70;99.90
52044;DHT22;38053;53.100;6.078;2022-12-18T02:40:32;-4.70;99.90
52044;DHT22;38053;53.100;6.078;2022-12-18T02:43:09;-4.80;99.90
52044;DHT22;38053;53.100;6.078;2022-12-18T02:45:35;-4.80;99.90
52044;DHT22;38053;53.100;6.078;2022-12-18T02:48:01;-4.80;99.90
52044;DHT22;38053;53.100;6.078;2022-12-18T02:50:38;-4.90;99.90
52044;DHT22;38053;53.100;6.078;2022-12-18T02:53:33;-4.90;99.90
52044;DHT22;38053;53.100;6.078;2022-12-18T02:56:21;-4.90;99.90
52044;DHT22;38053;53.100;6.078;2022-12-18T02:59:02;-4.90;99.90
52044;DHT22;38053;53.100;6.078;2022-12-18T03:01:53;-5.00;99.90
52044;DHT22;38053;53.100;6.078;2022-12-18T03:07:05;-5.00;99.90
52044;DHT22;38053;53.100;6.078;2022-12-18T03:09:36;-5.00;99.90
52044;DHT22;38053;53.100;6.078;2022-12-18T03:12:17;-5.00;99.90
52044;DHT22;38053;53.100;6.078;2022-12-18T03:15:14;-5.00;99.90
52044;DHT22;38053;53.100;6.078;2022-12-18T03:17:41;-5.00;99.90
52044;DHT22;38053;53.100;6.078;2022-12-18T03:20:12;-5.10;99.90
52044;DHT22;38053;53.100;6.078;2022-12-18T03:22:38;-5.10;99.90
52044;DHT22;38053;53.100;6.078;2022-12-18T03:25:10;-5.10;99.90
52044;DHT22;38053;53.100;6.078;2022-12-18T03:27:38;-5.10;99.90
52044;DHT22;38053;53.100;6.078;2022-12-18T03:30:08;-5.20;99.90
52044;DHT22;38053;53.100;6.078;2022-12-18T03:35:20;-5.20;99.90
52044;DHT22;38053;53.100;6.078;2022-12-18T03:37:47;-5.20;99.90
52044;DHT22;38053;53.100;6.078;2022-12-18T03:40:12;-5.20;99.90
52044;DHT22;38053;53.100;6.078;2022-12-18T03:45:26;-5.30;99.90
52044;DHT22;38053;53.100;6.078;2022-12-18T03:50:59;-5.30;99.90
52044;DHT22;38053;53.100;6.078;2022-12-18T03:55:52;-5.40;99.90
52044;DHT22;38053;53.100;6.078;2022-12-18T03:58:22;-5.30;99.90
52044;DHT22;38053;53.100;6.078;2022-12-18T04:00:49;-5.40;99.90
52044;DHT22;38053;53.100;6.078;2022-12-18T04:03:18;-5.40;99.90
52044;DHT22;38053;53.100;6.078;2022-12-18T04:05:45;-5.40;99.90
52044;DHT22;38053;53.100;6.078;2022-12-18T04:08:13;-5.40;99.90
52044;DHT22;38053;53.100;6.078;2022-12-18T04:10:39;-5.40;99.90
52044;DHT22;38053;53.100;6.078;2022-12-18T04:13:05;-5.40;99.90
52044;DHT22;38053;53.100;6.078;2022-12-18T04:15:34;-5.40;99.90
52044;DHT22;38053;53.100;6.078;2022-12-18T04:18:00;-5.40;99.90
52044;DHT22;38053;53.100;6.078;2022-12-18T04:20:25;-5.40;99.90
52044;DHT22;38053;53.100;6.078;2022-12-18T04:22:51;-5.40;99.90
52044;DHT22;38053;53.100;6.078;2022-12-18T04:25:17;-5.40;99.90
52044;DHT22;38053;53.100;6.078;2022-12-18T04:27:42;-5.40;99.90
52044;DHT22;38053;53.100;6.078;2022-12-18T04:30:09;-5.40;99.90
52044;DHT22;38053;53.100;6.078;2022-12-18T04:32:35;-5.40;99.90
52044;DHT22;38053;53.100;6.078;2022-12-18T04:35:01;-5.40;99.90
52044;DHT22;38053;53.100;6.078;2022-12-18T04:37:26;-5.40;99.90
52044;DHT22;38053;53.100;6.078;2022-12-18T04:39:52;-5.40;99.90
52044;DHT22;38053;53.100;6.078;2022-12-18T04:42:18;-5.40;99.90
52044;DHT22;38053;53.100;6.078;2022-12-18T04:44:43;-5.50;99.90
52044;DHT22;38053;53.100;6.078;2022-12-18T04:47:10;-5.40;99.90
52044;DHT22;38053;53.100;6.078;2022-12-18T04:49:35;-5.50;99.90
52044;DHT22;38053;53.100;6.078;2022-12-18T04:52:01;-5.50;99.90
52044;DHT22;38053;53.100;6.078;2022-12-18T04:54:27;-5.50;99.90
52044;DHT22;38053;53.100;6.078;2022-12-18T04:56:52;-5.60;99.90
52044;DHT22;38053;53.100;6.078;2022-12-18T04:59:18;-5.60;99.90
52044;DHT22;38053;53.100;6.078;2022-12-18T05:01:44;-5.70;99.90
52044;DHT22;38053;53.100;6.078;2022-12-18T05:04:09;-5.70;99.90
52044;DHT22;38053;53.100;6.078;2022-12-18T05:06:35;-5.70;99.90
52044;DHT22;38053;53.100;6.078;2022-12-18T05:09:01;-5.70;99.90
52044;DHT22;38053;53.100;6.078;2022-12-18T05:11:26;-5.70;99.90
52044;DHT22;38053;53.100;6.078;2022-12-18T05:13:52;-5.80;99.90
52044;DHT22;38053;53.100;6.078;2022-12-18T05:16:18;-5.80;99.90
52044;DHT22;38053;53.100;6.078;2022-12-18T05:18:43;-5.80;99.90
52044;DHT22;38053;53.100;6.078;2022-12-18T05:21:09;-5.90;99.90
52044;DHT22;38053;53.100;6.078;2022-12-18T05:23:35;-5.90;99.90
52044;DHT22;38053;53.100;6.078;2022-12-18T05:26:04;-5.90;99.90
52044;DHT22;38053;53.100;6.078;2022-12-18T05:28:31;-5.90;99.90
52044;DHT22;38053;53.100;6.078;2022-12-18T05:30:59;-5.90;99.90
52044;DHT22;38053;53.100;6.078;2022-12-18T05:33:26;-5.90;99.90
52044;DHT22;38053;53.100;6.078;2022-12-18T05:35:57;-5.90;99.90
52044;DHT22;38053;53.100;6.078;2022-12-18T05:38:24;-5.90;99.90
52044;DHT22;38053;53.100;6.078;2022-12-18T05:40:52;-5.90;99.90
52044;DHT22;38053;53.100;6.078;2022-12-18T05:43:18;-5.90;99.90
52044;DHT22;38053;53.100;6.078;2022-12-18T05:45:44;-5.90;99.90
52044;DHT22;38053;53.100;6.078;2022-12-18T05:48:13;-5.90;99.90
52044;DHT22;38053;53.100;6.078;2022-12-18T05:50:40;-5.90;99.90
52044;DHT22;38053;53.100;6.078;2022-12-18T05:53:07;-5.90;99.90
52044;DHT22;38053;53.100;6.078;2022-12-18T05:55:36;-5.90;99.90
52044;DHT22;38053;53.100;6.078;2022-12-18T05:58:03;-5.90;99.90
52044;DHT22;38053;53.100;6.078;2022-12-18T06:00:30;-5.90;99.90
52044;DHT22;38053;53.100;6.078;2022-12-18T06:02:58;-5.90;99.90
52044;DHT22;38053;53.100;6.078;2022-12-18T06:05:24;-5.90;99.90
52044;DHT22;38053;53.100;6.078;2022-12-18T06:07:50;-5.90;99.90
52044;DHT22;38053;53.100;6.078;2022-12-18T06:10:16;-5.90;99.90
52044;DHT22;38053;53.100;6.078;2022-12-18T06:12:41;-6.00;99.90
52044;DHT22;38053;53.100;6.078;2022-12-18T06:15:07;-6.00;99.90
52044;DHT22;38053;53.100;6.078;2022-12-18T06:17:34;-6.00;99.90
52044;DHT22;38053;53.100;6.078;2022-12-18T06:20:00;-6.00;99.90
52044;DHT22;38053;53.100;6.078;2022-12-18T06:22:26;-6.00;99.90
52044;DHT22;38053;53.100;6.078;2022-12-18T06:24:52;-6.00;99.90
52044;DHT22;38053;53.100;6.078;2022-12-18T06:27:18;-6.00;99.90
52044;DHT22;38053;53.100;6.078;2022-12-18T06:29:44;-6.00;99.90
52044;DHT22;38053;53.100;6.078;2022-12-18T06:32:09;-6.00;99.90
52044;DHT22;38053;53.100;6.078;2022-12-18T06:34:37;-6.00;99.90
52044;DHT22;38053;53.100;6.078;2022-12-18T06:37:03;-6.00;99.90
52044;DHT22;38053;53.100;6.078;2022-12-18T06:39:29;-6.10;99.90
52044;DHT22;38053;53.100;6.078;2022-12-18T06:41:55;-6.10;99.90
52044;DHT22;38053;53.100;6.078;2022-12-18T06:44:20;-6.10;99.90
52044;DHT22;38053;53.100;6.078;2022-12-18T06:46:46;-6.20;99.90
52044;DHT22;38053;53.100;6.078;2022-12-18T06:49:12;-6.10;99.90
52044;DHT22;38053;53.100;6.078;2022-12-18T06:51:38;-6.10;99.90
52044;DHT22;38053;53.100;6.078;2022-12-18T06:54:03;-6.20;99.90
52044;DHT22;38053;53.100;6.078;2022-12-18T06:56:29;-6.20;99.90
52044;DHT22;38053;53.100;6.078;2022-12-18T06:58:55;-6.20;99.90
52044;DHT22;38053;53.100;6.078;2022-12-18T07:01:21;-6.20;99.90
52044;DHT22;38053;53.100;6.078;2022-12-18T07:03:52;-6.20;99.90
52044;DHT22;38053;53.100;6.078;2022-12-18T07:06:20;-6.20;99.90
52044;DHT22;38053;53.100;6.078;2022-12-18T07:08:47;-6.20;99.90
52044;DHT22;38053;53.100;6.078;2022-12-18T07:11:13;-6.20;99.90
52044;DHT22;38053;53.100;6.078;2022-12-18T07:13:38;-6.30;99.90
52044;DHT22;38053;53.100;6.078;2022-12-18T07:16:10;-6.30;99.90
52044;DHT22;38053;53.100;6.078;2022-12-18T07:18:36;-6.30;99.90
52044;DHT22;38053;53.100;6.078;2022-12-18T07:21:07;-6.20;99.90
52044;DHT22;38053;53.100;6.078;2022-12-18T07:23:34;-6.20;99.90
52044;DHT22;38053;53.100;6.078;2022-12-18T07:26:05;-6.20;99.90
52044;DHT22;38053;53.100;6.078;2022-12-18T07:28:33;-6.20;99.90
52044;DHT22;38053;53.100;6.078;2022-12-18T07:31:03;-6.20;99.90
52044;DHT22;38053;53.100;6.078;2022-12-18T07:33:29;-6.20;99.90
52044;DHT22;38053;53.100;6.078;2022-12-18T07:35:54;-6.10;99.90
52044;DHT22;38053;53.100;6.078;2022-12-18T07:38:21;-6.10;99.90
52044;DHT22;38053;53.100;6.078;2022-12-18T07:40:47;-6.10;99.90
52044;DHT22;38053;53.100;6.078;2022-12-18T07:43:13;-6.10;99.90
52044;DHT22;38053;53.100;6.078;2022-12-18T07:45:39;-6.00;99.90
52044;DHT22;38053;53.100;6.078;2022-12-18T07:48:04;-6.00;99.90
52044;DHT22;38053;53.100;6.078;2022-12-18T07:50:30;-6.00;99.90
52044;DHT22;38053;53.100;6.078;2022-12-18T07:52:56;-5.90;99.90
52044;DHT22;38053;53.100;6.078;2022-12-18T07:55:21;-5.90;99.90
52044;DHT22;38053;53.100;6.078;2022-12-18T07:57:47;-5.90;99.90
52044;DHT22;38053;53.100;6.078;2022-12-18T08:00:14;-5.80;99.90
52044;DHT22;38053;53.100;6.078;2022-12-18T08:02:39;-5.80;99.90
52044;DHT22;38053;53.100;6.078;2022-12-18T08:05:06;-5.70;99.90
52044;DHT22;38053;53.100;6.078;2022-12-18T08:07:31;-5.70;99.90
52044;DHT22;38053;53.100;6.078;2022-12-18T08:09:57;-5.60;99.90
52044;DHT22;38053;53.100;6.078;2022-12-18T08:12:23;-5.60;99.90
52044;DHT22;38053;53.100;6.078;2022-12-18T08:14:49;-5.50;99.90
52044;DHT22;38053;53.100;6.078;2022-12-18T08:17:14;-5.50;99.90
52044;DHT22;38053;53.100;6.078;2022-12-18T08:19:40;-5.50;99.90
52044;DHT22;38053;53.100;6.078;2022-12-18T08:22:06;-5.40;99.90
52044;DHT22;38053;53.100;6.078;2022-12-18T08:24:32;-5.40;99.90
52044;DHT22;38053;53.100;6.078;2022-12-18T08:26:57;-5.40;99.90
52044;DHT22;38053;53.100;6.078;2022-12-18T08:29:23;-5.30;99.90
52044;DHT22;38053;53.100;6.078;2022-12-18T08:31:49;-5.30;99.90
52044;DHT22;38053;53.100;6.078;2022-12-18T08:34:15;-5.20;99.90
52044;DHT22;38053;53.100;6.078;2022-12-18T08:36:41;-5.20;99.90
52044;DHT22;38053;53.100;6.078;2022-12-18T08:39:06;-5.20;99.90
52044;DHT22;38053;53.100;6.078;2022-12-18T08:41:32;-5.20;99.90
52044;DHT22;38053;53.100;6.078;2022-12-18T08:43:58;-5.10;99.90
52044;DHT22;38053;53.100;6.078;2022-12-18T08:46:43;-5.10;99.90
52044;DHT22;38053;53.100;6.078;2022-12-18T08:49:10;-5.00;99.90
52044;DHT22;38053;53.100;6.078;2022-12-18T08:51:36;-5.00;99.90
52044;DHT22;38053;53.100;6.078;2022-12-18T08:54:03;-5.00;99.90
52044;DHT22;38053;53.100;6.078;2022-12-18T08:56:29;-4.90;99.90
52044;DHT22;38053;53.100;6.078;2022-12-18T08:58:56;-4.90;99.90
52044;DHT22;38053;53.100;6.078;2022-12-18T09:01:22;-4.80;99.90
52044;DHT22;38053;53.100;6.078;2022-12-18T09:03:49;-4.80;99.90
52044;DHT22;38053;53.100;6.078;2022-12-18T09:06:17;-4.70;99.90
52044;DHT22;38053;53.100;6.078;2022-12-18T09:08:44;-4.60;99.90
52044;DHT22;38053;53.100;6.078;2022-12-18T09:11:21;-4.50;99.90
52044;DHT22;38053;53.100;6.078;2022-12-18T09:13:48;-4.40;99.90
52044;DHT22;38053;53.100;6.078;2022-12-18T09:16:14;-4.40;99.90
52044;DHT22;38053;53.100;6.078;2022-12-18T09:18:40;-4.30;99.90
52044;DHT22;38053;53.100;6.078;2022-12-18T09:21:15;-4.20;99.90
52044;DHT22;38053;53.100;6.078;2022-12-18T09:23:41;-4.00;99.90
52044;DHT22;38053;53.100;6.078;2022-12-18T09:26:07;-3.90;99.90
52044;DHT22;38053;53.100;6.078;2022-12-18T09:28:33;-3.80;99.90
52044;DHT22;38053;53.100;6.078;2022-12-18T09:31:03;-3.70;99.90
52044;DHT22;38053;53.100;6.078;2022-12-18T09:33:29;-3.70;99.90
52044;DHT22;38053;53.100;6.078;2022-12-18T09:35:54;-3.60;99.90
52044;DHT22;38053;53.100;6.078;2022-12-18T09:38:20;-3.50;99.90
52044;DHT22;38053;53.100;6.078;2022-12-18T09:40:47;-3.50;99.90
52044;DHT22;38053;53.100;6.078;2022-12-18T09:43:30;-3.40;99.90
52044;DHT22;38053;53.100;6.078;2022-12-18T09:46:03;-3.40;99.90
52044;DHT22;38053;53.100;6.078;2022-12-18T09:48:40;-3.40;99.90
52044;DHT22;38053;53.100;6.078;2022-12-18T09:51:27;-3.30;99.90
52044;DHT22;38053;53.100;6.078;2022-12-18T09:54:12;-3.30;99.90
52044;DHT22;38053;53.100;6.078;2022-12-18T09:56:41;-3.30;99.90
52044;DHT22;38053;53.100;6.078;2022-12-18T09:59:21;-3.30;99.90
52044;DHT22;38053;53.100;6.078;2022-12-18T10:01:49;-3.20;99.90
52044;DHT22;38053;53.100;6.078;2022-12-18T10:04:14;-3.10;99.90
52044;DHT22;38053;53.100;6.078;2022-12-18T10:06:55;-3.10;99.90
52044;DHT22;38053;53.100;6.078;2022-12-18T10:09:29;-3.20;99.90
52044;DHT22;38053;53.100;6.078;2022-12-18T10:14:44;-3.20;99.90
52044;DHT22;38053;53.100;6.078;2022-12-18T10:17:36;-3.30;99.90
52044;DHT22;38053;53.100;6.078;2022-12-18T10:23:18;-3.30;99.90
52044;DHT22;38053;53.100;6.078;2022-12-18T10:28:21;-3.20;99.90
52044;DHT22;38053;53.100;6.078;2022-12-18T10:30:47;-3.20;99.90
52044;DHT22;38053;53.100;6.078;2022-12-18T10:33:22;-3.20;99.90
52044;DHT22;38053;53.100;6.078;2022-12-18T10:35:51;-3.10;99.90
52044;DHT22;38053;53.100;6.078;2022-12-18T10:43:48;-3.10;99.90
52044;DHT22;38053;53.100;6.078;2022-12-18T10:46:14;-3.00;99.90
52044;DHT22;38053;53.100;6.078;2022-12-18T10:51:35;-3.10;99.90
52044;DHT22;38053;53.100;6.078;2022-12-18T10:54:05;-3.00;99.90
52044;DHT22;38053;53.100;6.078;2022-12-18T10:56:34;-3.00;99.90
52044;DHT22;38053;53.100;6.078;2022-12-18T10:59:10;-3.00;99.90
52044;DHT22;38053;53.100;6.078;2022-12-18T11:01:55;-3.00;99.90
52044;DHT22;38053;53.100;6.078;2022-12-18T11:04:29;-2.90;99.90
52044;DHT22;38053;53.100;6.078;2022-12-18T11:07:05;-2.90;99.90
52044;DHT22;38053;53.100;6.078;2022-12-18T11:09:36;-2.80;99.90
52044;DHT22;38053;53.100;6.078;2022-12-18T11:12:22;-2.80;99.90
52044;DHT22;38053;53.100;6.078;2022-12-18T11:14:53;-2.80;99.90
52044;DHT22;38053;53.100;6.078;2022-12-18T11:17:35;-2.70;99.90
52044;DHT22;38053;53.100;6.078;2022-12-18T11:20:04;-2.70;99.90
52044;DHT22;38053;53.100;6.078;2022-12-18T11:22:35;-2.70;99.90
52044;DHT22;38053;53.100;6.078;2022-12-18T11:25:17;-2.70;99.90
52044;DHT22;38053;53.100;6.078;2022-12-18T11:30:44;-2.60;99.90
52044;DHT22;38053;53.100;6.078;2022-12-18T11:33:15;-2.60;99.90
52044;DHT22;38053;53.100;6.078;2022-12-18T11:35:56;-2.60;99.90
52044;DHT22;38053;53.100;6.078;2022-12-18T11:38:32;-2.50;99.90
52044;DHT22;38053;53.100;6.078;2022-12-18T11:41:38;-2.50;99.90
52044;DHT22;38053;53.100;6.078;2022-12-18T11:44:35;-2.50;99.90
52044;DHT22;38053;53.100;6.078;2022-12-18T11:47:15;-2.40;99.90
52044;DHT22;38053;53.100;6.078;2022-12-18T11:49:42;-2.40;99.90
52044;DHT22;38053;53.100;6.078;2022-12-18T11:52:24;-2.30;99.90
52044;DHT22;38053;53.100;6.078;2022-12-18T11:54:55;-2.30;99.90
52044;DHT22;38053;53.100;6.078;2022-12-18T11:57:34;-2.30;99.90
52044;DHT22;38053;53.100;6.078;2022-12-18T12:00:20;-2.20;99.90
52044;DHT22;38053;53.100;6.078;2022-12-18T12:16:13;-2.20;99.90
52044;DHT22;38053;53.100;6.078;2022-12-18T12:18:53;-2.10;99.90
52044;DHT22;38053;53.100;6.078;2022-12-18T12:30:20;-2.00;99.90
52044;DHT22;38053;53.100;6.078;2022-12-18T12:38:46;-1.80;99.90
52044;DHT22;38053;53.100;6.078;2022-12-18T12:41:19;-1.80;99.90
52044;DHT22;38053;53.100;6.078;2022-12-18T12:44:08;-1.70;99.90
52044;DHT22;38053;53.100;6.078;2022-12-18T12:46:39;-1.70;99.90
52044;DHT22;38053;53.100;6.078;2022-12-18T12:49:17;-1.70;99.90
52044;DHT22;38053;53.100;6.078;2022-12-18T12:51:46;-1.70;99.90
52044;DHT22;38053;53.100;6.078;2022-12-18T12:54:19;-1.60;99.90
52044;DHT22;38053;53.100;6.078;2022-12-18T12:57:12;-1.60;99.90
52044;DHT22;38053;53.100;6.078;2022-12-18T12:59:50;-1.60;99.90
52044;DHT22;38053;53.100;6.078;2022-12-18T13:05:55;-1.60;99.90
52044;DHT22;38053;53.100;6.078;2022-12-18T13:08:27;-1.50;99.90
52044;DHT22;38053;53.100;6.078;2022-12-18T13:10:55;-1.50;99.90
52044;DHT22;38053;53.100;6.078;2022-12-18T13:13:53;-1.50;99.90
52044;DHT22;38053;53.100;6.078;2022-12-18T13:16:21;-1.50;99.90
52044;DHT22;38053;53.100;6.078;2022-12-18T13:18:56;-1.50;99.90
52044;DHT22;38053;53.100;6.078;2022-12-18T13:21:30;-1.50;99.90
52044;DHT22;38053;53.100;6.078;2022-12-18T13:24:15;-1.50;99.90
52044;DHT22;38053;53.100;6.078;2022-12-18T13:26:41;-1.50;99.90
52044;DHT22;38053;53.100;6.078;2022-12-18T13:29:06;-1.40;99.90
52044;DHT22;38053;53.100;6.078;2022-12-18T13:34:19;-1.40;99.90
52044;DHT22;38053;53.100;6.078;2022-12-18T13:36:46;-1.40;99.90
52044;DHT22;38053;53.100;6.078;2022-12-18T13:41:46;-1.40;99.90
52044;DHT22;38053;53.100;6.078;2022-12-18T13:46:55;-1.40;99.90
52044;DHT22;38053;53.100;6.078;2022-12-18T13:51:51;-1.40;99.90
52044;DHT22;38053;53.100;6.078;2022-12-18T13:54:37;-1.40;99.90
52044;DHT22;38053;53.100;6.078;2022-12-18T13:57:22;-1.40;99.90
52044;DHT22;38053;53.100;6.078;2022-12-18T13:59:50;-1.40;99.90
52044;DHT22;38053;53.100;6.078;2022-12-18T14:02:20;-1.40;99.90
52044;DHT22;38053;53.100;6.078;2022-12-18T14:04:47;-1.40;99.90
52044;DHT22;38053;53.100;6.078;2022-12-18T14:07:26;-1.40;99.90
52044;DHT22;38053;53.100;6.078;2022-12-18T14:09:56;-1.40;99.90
52044;DHT22;38053;53.100;6.078;2022-12-18T14:12:26;-1.40;99.90
52044;DHT22;38053;53.100;6.078;2022-12-18T14:17:57;-1.40;99.90
52044;DHT22;38053;53.100;6.078;2022-12-18T14:20:26;-1.50;99.90
52044;DHT22;38053;53.100;6.078;2022-12-18T14:22:52;-1.50;99.90
52044;DHT22;38053;53.100;6.078;2022-12-18T14:25:26;-1.40;99.90
52044;DHT22;38053;53.100;6.078;2022-12-18T14:28:02;-1.50;99.90
52044;DHT22;38053;53.100;6.078;2022-12-18T14:30:37;-1.50;99.90
52044;DHT22;38053;53.100;6.078;2022-12-18T14:35:32;-1.50;99.90
52044;DHT22;38053;53.100;6.078;2022-12-18T14:40:43;-1.50;99.90
52044;DHT22;38053;53.100;6.078;2022-12-18T14:43:12;-1.50;99.90
52044;DHT22;38053;53.100;6.078;2022-12-18T14:45:40;-1.60;99.90
52044;DHT22;38053;53.100;6.078;2022-12-18T14:48:18;-1.60;99.90
52044;DHT22;38053;53.100;6.078;2022-12-18T14:50:45;-1.60;99.90
52044;DHT22;38053;53.100;6.078;2022-12-18T14:53:23;-1.60;99.90
52044;DHT22;38053;53.100;6.078;2022-12-18T14:55:50;-1.60;99.90
52044;DHT22;38053;53.100;6.078;2022-12-18T14:58:17;-1.60;99.90
52044;DHT22;38053;53.100;6.078;2022-12-18T15:00:43;-1.70;99.90
52044;DHT22;38053;53.100;6.078;2022-12-18T15:03:09;-1.70;99.90
52044;DHT22;38053;53.100;6.078;2022-12-18T15:05:35;-1.70;99.90
52044;DHT22;38053;53.100;6.078;2022-12-18T15:08:02;-1.70;99.90
52044;DHT22;38053;53.100;6.078;2022-12-18T15:10:30;-1.70;99.90
52044;DHT22;38053;53.100;6.078;2022-12-18T15:20:56;-1.70;99.90
52044;DHT22;38053;53.100;6.078;2022-12-18T15:25:58;-1.70;99.90
52044;DHT22;38053;53.100;6.078;2022-12-18T15:28:29;-1.60;99.90
52044;DHT22;38053;53.100;6.078;2022-12-18T15:31:18;-1.70;99.90
52044;DHT22;38053;53.100;6.078;2022-12-18T15:36:20;-1.70;99.90
52044;DHT22;38053;53.100;6.078;2022-12-18T15:38:53;-1.70;99.90
52044;DHT22;38053;53.100;6.078;2022-12-18T15:41:21;-1.70;99.90
52044;DHT22;38053;53.100;6.078;2022-12-18T15:43:48;-1.70;99.90
52044;DHT22;38053;53.100;6.078;2022-12-18T15:46:16;-1.70;99.90
52044;DHT22;38053;53.100;6.078;2022-12-18T15:48:45;-1.70;99.90
52044;DHT22;38053;53.100;6.078;2022-12-18T15:51:29;-1.70;99.90
52044;DHT22;38053;53.100;6.078;2022-12-18T15:53:59;-1.60;99.90
52044;DHT22;38053;53.100;6.078;2022-12-18T15:56:26;-1.70;99.90
52044;DHT22;38053;53.100;6.078;2022-12-18T15:59:16;-1.70;99.90
52044;DHT22;38053;53.100;6.078;2022-12-18T16:01:44;-1.70;99.90
52044;DHT22;38053;53.100;6.078;2022-12-18T16:04:14;-1.60;99.90
52044;DHT22;38053;53.100;6.078;2022-12-18T16:06:40;-1.70;99.90
52044;DHT22;38053;53.100;6.078;2022-12-18T16:09:07;-1.70;99.90
52044;DHT22;38053;53.100;6.078;2022-12-18T16:11:34;-1.70;99.90
52044;DHT22;38053;53.100;6.078;2022-12-18T16:14:20;-1.70;99.90
52044;DHT22;38053;53.100;6.078;2022-12-18T16:16:48;-1.60;99.90
52044;DHT22;38053;53.100;6.078;2022-12-18T16:19:15;-1.60;99.90
52044;DHT22;38053;53.100;6.078;2022-12-18T16:21:42;-1.60;99.90
52044;DHT22;38053;53.100;6.078;2022-12-18T16:24:16;-1.60;99.90
52044;DHT22;38053;53.100;6.078;2022-12-18T16:26:42;-1.60;99.90
52044;DHT22;38053;53.100;6.078;2022-12-18T16:29:09;-1.60;99.90
52044;DHT22;38053;53.100;6.078;2022-12-18T16:31:35;-1.60;99.90
52044;DHT22;38053;53.100;6.078;2022-12-18T16:34:13;-1.60;99.90
52044;DHT22;38053;53.100;6.078;2022-12-18T16:36:39;-1.60;99.90
52044;DHT22;38053;53.100;6.078;2022-12-18T16:39:05;-1.60;99.90
52044;DHT22;38053;53.100;6.078;2022-12-18T16:41:31;-1.60;99.90
52044;DHT22;38053;53.100;6.078;2022-12-18T16:43:57;-1.60;99.90
52044;DHT22;38053;53.100;6.078;2022-12-18T16:46:23;-1.60;99.90
52044;DHT22;38053;53.100;6.078;2022-12-18T16:48:49;-1.50;99.90
52044;DHT22;38053;53.100;6.078;2022-12-18T16:51:15;-1.50;99.90
52044;DHT22;38053;53.100;6.078;2022-12-18T16:53:40;-1.50;99.90
52044;DHT22;38053;53.100;6.078;2022-12-18T16:56:06;-1.50;99.90
52044;DHT22;38053;53.100;6.078;2022-12-18T16:58:32;-1.50;99.90
52044;DHT22;38053;53.100;6.078;2022-12-18T17:00:58;-1.50;99.90
52044;DHT22;38053;53.100;6.078;2022-12-18T17:03:24;-1.50;99.90
52044;DHT22;38053;53.100;6.078;2022-12-18T17:05:50;-1.40;99.90
52044;DHT22;38053;53.100;6.078;2022-12-18T17:08:15;-1.40;99.90
52044;DHT22;38053;53.100;6.078;2022-12-18T17:10:41;-1.40;99.90
52044;DHT22;38053;53.100;6.078;2022-12-18T17:13:07;-1.40;99.90
52044;DHT22;38053;53.100;6.078;2022-12-18T17:15:36;-1.40;99.90
52044;DHT22;38053;53.100;6.078;2022-12-18T17:18:02;-1.40;99.90
52044;DHT22;38053;53.100;6.078;2022-12-18T17:20:29;-1.40;99.90
52044;DHT22;38053;53.100;6.078;2022-12-18T17:22:55;-1.30;99.90
52044;DHT22;38053;53.100;6.078;2022-12-18T17:25:20;-1.40;99.90
52044;DHT22;38053;53.100;6.078;2022-12-18T17:27:46;-1.30;99.90
52044;DHT22;38053;53.100;6.078;2022-12-18T17:30:12;-1.30;99.90
52044;DHT22;38053;53.100;6.078;2022-12-18T17:32:38;-1.30;99.90
52044;DHT22;38053;53.100;6.078;2022-12-18T17:35:04;-1.30;99.90
52044;DHT22;38053;53.100;6.078;2022-12-18T17:37:30;-1.30;99.90
52044;DHT22;38053;53.100;6.078;2022-12-18T17:39:55;-1.30;99.90
52044;DHT22;38053;53.100;6.078;2022-12-18T17:42:21;-1.30;99.90